OMD733 KMIA-CYUL
Flight info
| Callsign | OMD733 |
|---|---|
| Flight time | 2h 46m |
| Altitude | 34000 |
| Route | FOLZZ3 ALYRA DCT GRUBR/N0478F350 Y299 SEELO DCT WAALT Q131 EARZZ DCT JAMIE Q133 PBERG CARTR5 |
| Aircraft | MD11/H-SDE1E2E3FGHIJ2J3J4J5M1RWXY/LB1D1 |
Departure
| Time | 2026-05-04 08:24 |
|---|---|
| Airport | Miami International Airport (KMIA) |
Arrival
| Time | 2026-05-04 11:10 |
|---|---|
| Airport | Montreal / Pierre Elliott Trudeau International Airport (CYUL) |
| Time | Latitude | Longitude | Altitude | Speed | Heading |
|---|---|---|---|---|---|
| 2026-05-04 08:12 | 25.79081 | -80.30480 | 22 ft | 0 kts | 48° |
| 2026-05-04 08:16 | 25.79063 | -80.30550 | 27 ft | 2 kts | 127° |
| 2026-05-04 08:16 | 25.79070 | -80.30561 | 27 ft | 2 kts | 159° |
| 2026-05-04 08:16 | 25.79075 | -80.30564 | 24 ft | 0 kts | 181° |
| 2026-05-04 08:19 | 25.78883 | -80.30563 | 25 ft | 11 kts | 182° |
| 2026-05-04 08:19 | 25.78841 | -80.30622 | 24 ft | 13 kts | 262° |
| 2026-05-04 08:20 | 25.78833 | -80.30748 | 23 ft | 20 kts | 267° |
| 2026-05-04 08:20 | 25.78826 | -80.30907 | 26 ft | 21 kts | 267° |
| 2026-05-04 08:20 | 25.78820 | -80.31058 | 25 ft | 18 kts | 268° |
| 2026-05-04 08:20 | 25.78811 | -80.31187 | 24 ft | 16 kts | 261° |
| 2026-05-04 08:21 | 25.78808 | -80.31289 | 22 ft | 12 kts | 273° |
| 2026-05-04 08:21 | 25.78808 | -80.31387 | 22 ft | 14 kts | 267° |
| 2026-05-04 08:21 | 25.78782 | -80.31474 | 27 ft | 15 kts | 218° |
| 2026-05-04 08:21 | 25.78670 | -80.31479 | 24 ft | 18 kts | 177° |
| 2026-05-04 08:22 | 25.78607 | -80.31448 | 25 ft | 1 kts | 108° |
| 2026-05-04 08:22 | 25.78609 | -80.31440 | 27 ft | 0 kts | 85° |
| 2026-05-04 08:24 | 25.78742 | -80.28320 | 401 ft | 193 kts | 87° |
| 2026-05-04 08:24 | 25.78654 | -80.26859 | 1375 ft | 192 kts | 99° |
| 2026-05-04 08:24 | 25.78366 | -80.25256 | 1645 ft | 233 kts | 103° |
| 2026-05-04 08:24 | 25.77982 | -80.23366 | 1850 ft | 266 kts | 103° |
| 2026-05-04 08:25 | 25.77561 | -80.21350 | 2793 ft | 270 kts | 103° |
| 2026-05-04 08:25 | 25.77119 | -80.19300 | 3744 ft | 277 kts | 107° |
| 2026-05-04 08:25 | 25.76400 | -80.17293 | 4649 ft | 283 kts | 116° |
| 2026-05-04 08:25 | 25.75497 | -80.15328 | 5540 ft | 289 kts | 119° |
| 2026-05-04 08:26 | 25.74669 | -80.13270 | 6392 ft | 296 kts | 107° |
| 2026-05-04 08:27 | 25.82647 | -79.99498 | 10452 ft | 375 kts | 45° |
| 2026-05-04 08:28 | 25.84401 | -79.97286 | 10988 ft | 386 kts | 45° |
| 2026-05-04 08:28 | 25.86180 | -79.95015 | 11676 ft | 394 kts | 46° |
| 2026-05-04 08:28 | 25.87987 | -79.92697 | 12356 ft | 401 kts | 46° |
| 2026-05-04 08:28 | 25.89826 | -79.90333 | 13005 ft | 408 kts | 46° |
| 2026-05-04 08:29 | 25.91567 | -79.88091 | 13625 ft | 415 kts | 46° |
| 2026-05-04 08:29 | 25.93467 | -79.85645 | 14199 ft | 421 kts | 46° |
| 2026-05-04 08:29 | 25.95393 | -79.83164 | 14789 ft | 426 kts | 46° |
| 2026-05-04 08:31 | 26.09509 | -79.64948 | 18560 ft | 461 kts | 46° |
| 2026-05-04 08:33 | 26.23006 | -79.44182 | 21831 ft | 484 kts | 53° |
| 2026-05-04 08:33 | 26.24933 | -79.41095 | 22314 ft | 487 kts | 53° |
| 2026-05-04 08:35 | 26.43366 | -79.24810 | 25348 ft | 498 kts | 26° |
| 2026-05-04 08:35 | 26.46309 | -79.22751 | 25787 ft | 502 kts | 27° |
| 2026-05-04 08:35 | 26.49265 | -79.20647 | 26204 ft | 505 kts | 27° |
| 2026-05-04 08:35 | 26.52231 | -79.18511 | 26624 ft | 509 kts | 27° |
| 2026-05-04 08:37 | 26.70399 | -79.05355 | 29087 ft | 529 kts | 27° |
| 2026-05-04 08:37 | 26.73499 | -79.03109 | 29475 ft | 532 kts | 26° |
| 2026-05-04 08:37 | 26.76614 | -79.00851 | 29876 ft | 534 kts | 26° |
| 2026-05-04 08:38 | 26.79734 | -78.98585 | 30321 ft | 534 kts | 26° |
| 2026-05-04 08:38 | 26.82854 | -78.96318 | 30704 ft | 535 kts | 26° |
| 2026-05-04 08:38 | 26.85980 | -78.94045 | 31068 ft | 536 kts | 27° |
| 2026-05-04 08:40 | 27.07965 | -78.78006 | 33409 ft | 543 kts | 27° |
| 2026-05-04 08:40 | 27.11130 | -78.75690 | 33709 ft | 543 kts | 27° |
| 2026-05-04 08:40 | 27.14303 | -78.73370 | 33923 ft | 546 kts | 28° |
| 2026-05-04 08:41 | 27.17495 | -78.71035 | 33972 ft | 548 kts | 28° |
| 2026-05-04 08:41 | 27.23894 | -78.66352 | 33989 ft | 549 kts | 27° |
| 2026-05-04 08:42 | 27.30643 | -78.62658 | 33983 ft | 531 kts | 8° |
| 2026-05-04 08:42 | 27.34218 | -78.61821 | 33982 ft | 519 kts | 358° |
| 2026-05-04 08:42 | 27.37787 | -78.61493 | 33988 ft | 513 kts | 354° |
| 2026-05-04 08:43 | 27.44947 | -78.61109 | 33992 ft | 520 kts | 355° |
| 2026-05-04 08:43 | 27.52231 | -78.60409 | 33991 ft | 528 kts | 358° |
| 2026-05-04 08:44 | 27.59540 | -78.59463 | 33997 ft | 529 kts | 359° |
| 2026-05-04 08:46 | 27.88805 | -78.55566 | 34006 ft | 532 kts | 358° |
| 2026-05-04 08:46 | 27.96167 | -78.54594 | 34014 ft | 533 kts | 358° |
| 2026-05-04 08:47 | 28.03537 | -78.53619 | 34018 ft | 534 kts | 358° |
| 2026-05-04 08:47 | 28.10917 | -78.52640 | 34026 ft | 534 kts | 358° |
| 2026-05-04 08:48 | 28.18314 | -78.51657 | 34021 ft | 535 kts | 358° |
| 2026-05-04 08:48 | 28.25710 | -78.50672 | 34030 ft | 535 kts | 358° |
| 2026-05-04 08:49 | 28.33107 | -78.49687 | 34032 ft | 535 kts | 358° |
| 2026-05-04 08:50 | 28.58939 | -78.46240 | 34051 ft | 535 kts | 358° |
| 2026-05-04 08:51 | 28.66328 | -78.45251 | 34054 ft | 534 kts | 358° |
| 2026-05-04 08:51 | 28.73715 | -78.44260 | 34058 ft | 535 kts | 358° |
| 2026-05-04 08:52 | 28.81105 | -78.43268 | 34065 ft | 535 kts | 358° |
| 2026-05-04 08:52 | 28.88493 | -78.42275 | 34068 ft | 535 kts | 358° |
| 2026-05-04 08:54 | 29.17952 | -78.38294 | 34080 ft | 532 kts | 358° |
| 2026-05-04 08:55 | 29.25312 | -78.37298 | 34081 ft | 532 kts | 358° |
| 2026-05-04 08:55 | 29.32660 | -78.36301 | 34084 ft | 532 kts | 358° |
| 2026-05-04 08:57 | 29.57689 | -78.36439 | 34103 ft | 492 kts | 331° |
| 2026-05-04 09:01 | 30.03750 | -78.52320 | 34107 ft | 494 kts | 334° |
| 2026-05-04 09:01 | 30.10354 | -78.54510 | 34116 ft | 494 kts | 334° |
| 2026-05-04 09:02 | 30.17195 | -78.55932 | 34401 ft | 509 kts | 350° |
| 2026-05-04 09:02 | 30.20766 | -78.55750 | 34749 ft | 517 kts | 358° |
| 2026-05-04 09:02 | 30.24338 | -78.55163 | 35023 ft | 521 kts | 1° |
| 2026-05-04 09:03 | 30.31517 | -78.53741 | 35114 ft | 525 kts | 1° |
| 2026-05-04 09:03 | 30.38751 | -78.52510 | 35117 ft | 525 kts | 359° |
| 2026-05-04 09:04 | 30.45997 | -78.51393 | 35122 ft | 526 kts | 360° |
| 2026-05-04 09:04 | 30.50794 | -78.50631 | 35122 ft | 526 kts | 360° |
| 2026-05-04 09:05 | 30.57945 | -78.49474 | 35132 ft | 525 kts | 0° |
| 2026-05-04 09:05 | 30.65178 | -78.48298 | 35129 ft | 525 kts | 0° |
| 2026-05-04 09:06 | 30.72411 | -78.47123 | 35132 ft | 524 kts | 0° |
| 2026-05-04 09:08 | 31.01296 | -78.42416 | 35129 ft | 523 kts | 0° |
| 2026-05-04 09:08 | 31.08503 | -78.41237 | 35134 ft | 523 kts | 1° |
| 2026-05-04 09:09 | 31.15665 | -78.40063 | 35136 ft | 522 kts | 1° |
| 2026-05-04 09:09 | 31.22862 | -78.38882 | 35139 ft | 522 kts | 1° |
| 2026-05-04 09:10 | 31.30053 | -78.37697 | 35136 ft | 521 kts | 1° |
| 2026-05-04 09:10 | 31.37236 | -78.36512 | 35139 ft | 521 kts | 1° |
| 2026-05-04 09:11 | 31.44411 | -78.35328 | 35139 ft | 520 kts | 1° |
| 2026-05-04 09:11 | 31.51573 | -78.34146 | 35141 ft | 519 kts | 1° |
| 2026-05-04 09:12 | 31.58727 | -78.32963 | 35141 ft | 519 kts | 1° |
| 2026-05-04 09:14 | 31.87266 | -78.28225 | 35141 ft | 517 kts | 2° |
| 2026-05-04 09:14 | 31.94388 | -78.27039 | 35144 ft | 517 kts | 2° |
| 2026-05-04 09:15 | 32.01506 | -78.25840 | 35147 ft | 517 kts | 2° |
| 2026-05-04 09:15 | 32.08597 | -78.24415 | 35145 ft | 517 kts | 5° |
| 2026-05-04 09:17 | 32.40253 | -78.17525 | 35143 ft | 513 kts | 5° |
| 2026-05-04 09:18 | 32.47272 | -78.16005 | 35143 ft | 512 kts | 5° |
| 2026-05-04 09:18 | 32.54277 | -78.14484 | 35143 ft | 512 kts | 5° |
| 2026-05-04 09:19 | 32.61277 | -78.12962 | 35140 ft | 511 kts | 5° |
| 2026-05-04 09:19 | 32.68268 | -78.11439 | 35139 ft | 510 kts | 5° |
| 2026-05-04 09:20 | 32.75244 | -78.09917 | 35138 ft | 509 kts | 5° |
| 2026-05-04 09:20 | 32.82202 | -78.08397 | 35141 ft | 508 kts | 5° |
| 2026-05-04 09:21 | 32.89149 | -78.06872 | 35137 ft | 507 kts | 5° |
| 2026-05-04 09:21 | 32.96039 | -78.05358 | 35139 ft | 506 kts | 5° |
| 2026-05-04 09:22 | 33.02961 | -78.03837 | 35138 ft | 505 kts | 5° |
| 2026-05-04 09:22 | 33.09870 | -78.02317 | 35137 ft | 504 kts | 5° |
| 2026-05-04 09:23 | 33.16760 | -78.00800 | 35137 ft | 503 kts | 5° |
| 2026-05-04 09:23 | 33.23643 | -77.99282 | 35139 ft | 502 kts | 5° |
| 2026-05-04 09:25 | 33.51068 | -77.93208 | 35136 ft | 499 kts | 5° |
| 2026-05-04 09:26 | 33.57896 | -77.91690 | 35139 ft | 498 kts | 5° |
| 2026-05-04 09:26 | 33.64710 | -77.90172 | 35140 ft | 497 kts | 5° |
| 2026-05-04 09:27 | 33.71510 | -77.88650 | 35147 ft | 497 kts | 5° |
| 2026-05-04 09:27 | 33.78301 | -77.87124 | 35144 ft | 497 kts | 6° |
| 2026-05-04 09:28 | 33.85074 | -77.85475 | 35148 ft | 497 kts | 6° |
| 2026-05-04 09:28 | 33.91844 | -77.83752 | 35147 ft | 497 kts | 7° |
| 2026-05-04 09:29 | 33.98600 | -77.82032 | 35147 ft | 496 kts | 7° |
| 2026-05-04 09:29 | 34.05317 | -77.80329 | 35144 ft | 496 kts | 6° |
| 2026-05-04 09:30 | 34.12074 | -77.78615 | 35145 ft | 496 kts | 6° |
| 2026-05-04 09:30 | 34.18826 | -77.76901 | 35148 ft | 496 kts | 6° |
| 2026-05-04 09:31 | 34.25577 | -77.75183 | 35150 ft | 496 kts | 6° |
| 2026-05-04 09:31 | 34.32330 | -77.73462 | 35145 ft | 496 kts | 6° |
| 2026-05-04 09:32 | 34.39084 | -77.71738 | 35151 ft | 495 kts | 6° |
| 2026-05-04 09:34 | 34.62428 | -77.64397 | 35150 ft | 507 kts | 21° |
| 2026-05-04 09:34 | 34.65581 | -77.62464 | 35152 ft | 508 kts | 22° |
| 2026-05-04 09:34 | 34.71855 | -77.58465 | 35159 ft | 509 kts | 22° |
| 2026-05-04 09:35 | 34.78161 | -77.54554 | 35157 ft | 509 kts | 21° |
| 2026-05-04 09:35 | 34.84503 | -77.50710 | 35158 ft | 509 kts | 21° |
| 2026-05-04 09:37 | 35.09969 | -77.35272 | 35157 ft | 512 kts | 21° |
| 2026-05-04 09:38 | 35.16353 | -77.31381 | 35160 ft | 513 kts | 21° |
| 2026-05-04 09:38 | 35.22740 | -77.27481 | 35156 ft | 513 kts | 21° |
| 2026-05-04 09:39 | 35.29133 | -77.23571 | 35155 ft | 514 kts | 21° |
| 2026-05-04 09:39 | 35.35533 | -77.19639 | 35148 ft | 515 kts | 21° |
| 2026-05-04 09:40 | 35.41942 | -77.15689 | 35150 ft | 516 kts | 21° |
| 2026-05-04 09:40 | 35.48362 | -77.11736 | 35150 ft | 516 kts | 21° |
| 2026-05-04 09:42 | 35.74089 | -76.95845 | 35150 ft | 519 kts | 21° |
| 2026-05-04 09:43 | 35.80532 | -76.91847 | 35137 ft | 520 kts | 21° |
| 2026-05-04 09:43 | 35.87065 | -76.88009 | 35138 ft | 518 kts | 18° |
| 2026-05-04 09:44 | 35.93699 | -76.84555 | 35142 ft | 517 kts | 17° |
| 2026-05-04 09:46 | 36.20345 | -76.70768 | 35139 ft | 520 kts | 17° |
| 2026-05-04 09:46 | 36.27018 | -76.67277 | 35137 ft | 521 kts | 17° |
| 2026-05-04 09:47 | 36.33703 | -76.63775 | 35127 ft | 522 kts | 17° |
| 2026-05-04 09:49 | 36.60420 | -76.49710 | 35134 ft | 523 kts | 17° |
| 2026-05-04 09:51 | 36.83890 | -76.37241 | 35131 ft | 525 kts | 17° |
| 2026-05-04 09:51 | 36.90614 | -76.33662 | 35131 ft | 525 kts | 17° |
| 2026-05-04 09:52 | 36.96206 | -76.30679 | 35131 ft | 525 kts | 17° |
| 2026-05-04 09:52 | 37.02933 | -76.27085 | 35133 ft | 526 kts | 17° |
| 2026-05-04 09:53 | 37.09666 | -76.23480 | 35105 ft | 526 kts | 17° |
| 2026-05-04 09:53 | 37.16398 | -76.19869 | 35108 ft | 526 kts | 17° |
| 2026-05-04 09:54 | 37.23136 | -76.16247 | 35107 ft | 526 kts | 17° |
| 2026-05-04 09:54 | 37.29867 | -76.12623 | 35110 ft | 527 kts | 17° |
| 2026-05-04 09:55 | 37.36604 | -76.08988 | 35108 ft | 527 kts | 17° |
| 2026-05-04 09:55 | 37.43300 | -76.05352 | 35107 ft | 527 kts | 17° |
| 2026-05-04 09:56 | 37.50083 | -76.01667 | 35105 ft | 528 kts | 17° |
| 2026-05-04 09:56 | 37.56783 | -75.98029 | 35091 ft | 528 kts | 17° |
| 2026-05-04 09:57 | 37.63483 | -75.94183 | 35095 ft | 533 kts | 22° |
| 2026-05-04 09:57 | 37.69823 | -75.89211 | 35096 ft | 539 kts | 29° |
| 2026-05-04 09:58 | 37.76015 | -75.83844 | 35095 ft | 540 kts | 29° |
| 2026-05-04 09:58 | 37.82237 | -75.78516 | 35097 ft | 540 kts | 28° |
| 2026-05-04 10:00 | 38.07259 | -75.57460 | 35119 ft | 540 kts | 28° |
| 2026-05-04 10:02 | 38.29441 | -75.39872 | 35088 ft | 525 kts | 11° |
| 2026-05-04 10:04 | 38.53926 | -75.35266 | 35090 ft | 509 kts | 1° |
| 2026-05-04 10:04 | 38.60907 | -75.33754 | 35083 ft | 508 kts | 1° |
| 2026-05-04 10:05 | 38.67881 | -75.32230 | 35086 ft | 508 kts | 1° |
| 2026-05-04 10:05 | 38.74801 | -75.30722 | 35086 ft | 508 kts | 2° |
| 2026-05-04 10:06 | 38.81614 | -75.27865 | 35088 ft | 525 kts | 20° |
| 2026-05-04 10:06 | 38.87982 | -75.23153 | 35082 ft | 530 kts | 26° |
| 2026-05-04 10:08 | 39.10204 | -75.06676 | 35093 ft | 525 kts | 23° |
| 2026-05-04 10:08 | 39.16577 | -75.02092 | 35092 ft | 524 kts | 23° |
| 2026-05-04 10:09 | 39.22941 | -74.97494 | 35074 ft | 524 kts | 23° |
| 2026-05-04 10:09 | 39.29258 | -74.92767 | 35077 ft | 526 kts | 27° |
| 2026-05-04 10:10 | 39.35304 | -74.87403 | 35077 ft | 528 kts | 31° |
| 2026-05-04 10:10 | 39.41217 | -74.81876 | 35078 ft | 527 kts | 31° |
| 2026-05-04 10:11 | 39.47173 | -74.76351 | 35086 ft | 526 kts | 30° |
| 2026-05-04 10:11 | 39.53143 | -74.70862 | 35079 ft | 526 kts | 30° |
| 2026-05-04 10:12 | 39.59112 | -74.65375 | 35083 ft | 526 kts | 30° |
| 2026-05-04 10:12 | 39.65072 | -74.59883 | 35082 ft | 525 kts | 30° |
| 2026-05-04 10:13 | 39.71017 | -74.54390 | 35077 ft | 524 kts | 31° |
| 2026-05-04 10:13 | 39.76954 | -74.48891 | 35070 ft | 524 kts | 31° |
| 2026-05-04 10:14 | 39.82879 | -74.43392 | 35077 ft | 523 kts | 31° |
| 2026-05-04 10:16 | 40.06484 | -74.21315 | 35067 ft | 521 kts | 31° |
| 2026-05-04 10:16 | 40.12367 | -74.15785 | 35066 ft | 521 kts | 31° |
| 2026-05-04 10:17 | 40.18256 | -74.10247 | 35060 ft | 521 kts | 31° |
| 2026-05-04 10:19 | 40.39164 | -73.91870 | 35054 ft | 513 kts | 20° |
| 2026-05-04 10:19 | 40.42391 | -73.89897 | 35041 ft | 512 kts | 19° |
| 2026-05-04 10:19 | 40.48085 | -73.86508 | 35038 ft | 512 kts | 19° |
| 2026-05-04 10:20 | 40.54550 | -73.82571 | 35039 ft | 512 kts | 20° |
| 2026-05-04 10:20 | 40.60999 | -73.78560 | 35039 ft | 511 kts | 19° |
| 2026-05-04 10:21 | 40.67681 | -73.75650 | 35041 ft | 503 kts | 7° |
| 2026-05-04 10:21 | 40.74509 | -73.73755 | 35036 ft | 501 kts | 5° |
| 2026-05-04 10:22 | 40.84758 | -73.70946 | 35020 ft | 502 kts | 7° |
| 2026-05-04 10:23 | 40.91576 | -73.68954 | 34997 ft | 502 kts | 7° |
| 2026-05-04 10:25 | 41.18881 | -73.60865 | 34991 ft | 503 kts | 7° |
| 2026-05-04 10:25 | 41.25720 | -73.58837 | 34991 ft | 503 kts | 6° |
| 2026-05-04 10:26 | 41.32595 | -73.57452 | 34993 ft | 498 kts | 0° |
| 2026-05-04 10:26 | 41.39445 | -73.56580 | 34992 ft | 498 kts | 360° |
| 2026-05-04 10:27 | 41.46351 | -73.55720 | 34992 ft | 498 kts | 0° |
| 2026-05-04 10:27 | 41.53252 | -73.54803 | 34991 ft | 499 kts | 0° |
| 2026-05-04 10:28 | 41.60160 | -73.53857 | 34984 ft | 499 kts | 0° |
| 2026-05-04 10:28 | 41.67069 | -73.52907 | 34983 ft | 499 kts | 0° |
| 2026-05-04 10:29 | 41.73976 | -73.51957 | 34968 ft | 499 kts | 1° |
| 2026-05-04 10:29 | 41.80894 | -73.51005 | 34957 ft | 500 kts | 1° |
| 2026-05-04 10:30 | 41.87736 | -73.50054 | 34941 ft | 484 kts | 0° |
| 2026-05-04 10:30 | 41.94405 | -73.49129 | 34948 ft | 481 kts | 360° |
| 2026-05-04 10:31 | 42.01053 | -73.48215 | 34937 ft | 480 kts | 360° |
| 2026-05-04 10:32 | 42.24281 | -73.44978 | 34904 ft | 480 kts | 0° |
| 2026-05-04 10:33 | 42.30926 | -73.44049 | 34902 ft | 480 kts | 0° |
| 2026-05-04 10:33 | 42.37571 | -73.43118 | 34896 ft | 479 kts | 0° |
| 2026-05-04 10:34 | 42.44206 | -73.42186 | 34905 ft | 479 kts | 0° |
| 2026-05-04 10:34 | 42.50796 | -73.41259 | 34898 ft | 479 kts | 0° |
| 2026-05-04 10:35 | 42.57427 | -73.40324 | 34900 ft | 479 kts | 0° |
| 2026-05-04 10:35 | 42.64060 | -73.39387 | 34909 ft | 479 kts | 0° |
| 2026-05-04 10:36 | 42.70695 | -73.38447 | 34914 ft | 479 kts | 0° |
| 2026-05-04 10:36 | 42.77328 | -73.37506 | 34908 ft | 479 kts | 0° |
| 2026-05-04 10:37 | 42.83957 | -73.36563 | 34902 ft | 479 kts | 0° |
| 2026-05-04 10:37 | 42.90578 | -73.35619 | 34901 ft | 478 kts | 0° |
| 2026-05-04 10:39 | 43.12457 | -73.35493 | 34901 ft | 469 kts | 350° |
| 2026-05-04 10:40 | 43.18966 | -73.36156 | 34890 ft | 469 kts | 351° |
| 2026-05-04 10:40 | 43.25484 | -73.36760 | 34888 ft | 469 kts | 351° |
| 2026-05-04 10:41 | 43.31987 | -73.37345 | 34879 ft | 468 kts | 351° |
| 2026-05-04 10:41 | 43.38491 | -73.37930 | 34883 ft | 468 kts | 351° |
| 2026-05-04 10:42 | 43.44991 | -73.38519 | 34883 ft | 468 kts | 351° |
| 2026-05-04 10:42 | 43.51477 | -73.39108 | 34883 ft | 467 kts | 351° |
| 2026-05-04 10:43 | 43.57964 | -73.39699 | 34882 ft | 467 kts | 351° |
| 2026-05-04 10:45 | 43.83855 | -73.42365 | 34862 ft | 479 kts | 351° |
| 2026-05-04 10:45 | 43.90583 | -73.43141 | 34854 ft | 483 kts | 351° |
| 2026-05-04 10:45 | 43.93893 | -73.43511 | 34552 ft | 472 kts | 351° |
| 2026-05-04 10:46 | 43.97144 | -73.43875 | 34048 ft | 468 kts | 351° |
| 2026-05-04 10:46 | 44.00395 | -73.44245 | 33306 ft | 468 kts | 351° |
| 2026-05-04 10:46 | 44.03628 | -73.44614 | 32602 ft | 465 kts | 351° |
| 2026-05-04 10:46 | 44.06852 | -73.44984 | 31938 ft | 465 kts | 351° |
| 2026-05-04 10:47 | 44.10067 | -73.45354 | 31291 ft | 464 kts | 351° |
| 2026-05-04 10:47 | 44.13295 | -73.45725 | 30640 ft | 463 kts | 352° |
| 2026-05-04 10:47 | 44.16496 | -73.46093 | 30006 ft | 462 kts | 352° |
| 2026-05-04 10:47 | 44.19695 | -73.46460 | 29263 ft | 460 kts | 352° |
| 2026-05-04 10:49 | 44.41983 | -73.49030 | 25291 ft | 452 kts | 352° |
| 2026-05-04 10:49 | 44.45101 | -73.49390 | 24941 ft | 448 kts | 352° |
| 2026-05-04 10:50 | 44.48203 | -73.49750 | 24828 ft | 446 kts | 352° |
| 2026-05-04 10:51 | 44.69410 | -73.52226 | 20600 ft | 421 kts | 352° |
| 2026-05-04 10:52 | 44.72320 | -73.52571 | 19629 ft | 420 kts | 352° |
| 2026-05-04 10:52 | 44.75173 | -73.52909 | 19175 ft | 406 kts | 352° |
| 2026-05-04 10:52 | 44.77988 | -73.53243 | 18433 ft | 404 kts | 352° |
| 2026-05-04 10:54 | 44.96786 | -73.55386 | 12935 ft | 371 kts | 353° |
| 2026-05-04 10:54 | 44.99335 | -73.55666 | 12284 ft | 366 kts | 353° |
| 2026-05-04 10:56 | 45.16257 | -73.57526 | 10722 ft | 315 kts | 353° |
| 2026-05-04 10:56 | 45.18393 | -73.57759 | 10604 ft | 300 kts | 352° |
| 2026-05-04 10:56 | 45.20420 | -73.57981 | 10489 ft | 285 kts | 352° |
| 2026-05-04 10:57 | 45.22369 | -73.58196 | 10346 ft | 279 kts | 352° |
| 2026-05-04 10:57 | 45.24302 | -73.58413 | 10018 ft | 278 kts | 352° |
| 2026-05-04 10:57 | 45.26234 | -73.58630 | 9507 ft | 279 kts | 352° |
| 2026-05-04 10:57 | 45.28172 | -73.58849 | 8987 ft | 280 kts | 352° |
| 2026-05-04 10:58 | 45.30119 | -73.59066 | 8496 ft | 280 kts | 353° |
| 2026-05-04 10:58 | 45.32058 | -73.59281 | 8045 ft | 279 kts | 353° |
| 2026-05-04 10:58 | 45.33961 | -73.59491 | 7610 ft | 277 kts | 353° |
| 2026-05-04 10:58 | 45.35880 | -73.59703 | 7169 ft | 276 kts | 353° |
| 2026-05-04 10:59 | 45.37793 | -73.59888 | 6737 ft | 274 kts | 357° |
| 2026-05-04 10:59 | 45.39666 | -73.59442 | 6319 ft | 275 kts | 20° |
| 2026-05-04 10:59 | 45.41345 | -73.58167 | 5920 ft | 274 kts | 30° |
| 2026-05-04 10:59 | 45.42932 | -73.56679 | 5499 ft | 273 kts | 32° |
| 2026-05-04 11:00 | 45.44493 | -73.55159 | 5111 ft | 271 kts | 32° |
| 2026-05-04 11:01 | 45.54448 | -73.45487 | 3970 ft | 227 kts | 32° |
| 2026-05-04 11:02 | 45.55757 | -73.44214 | 3960 ft | 227 kts | 33° |
| 2026-05-04 11:02 | 45.56991 | -73.42796 | 3962 ft | 228 kts | 39° |
| 2026-05-04 11:05 | 45.60467 | -73.58557 | 3238 ft | 198 kts | 215° |
| 2026-05-04 11:06 | 45.59327 | -73.59642 | 2972 ft | 196 kts | 217° |
| 2026-05-04 11:06 | 45.58217 | -73.60774 | 2693 ft | 195 kts | 219° |
| 2026-05-04 11:06 | 45.57156 | -73.61977 | 2425 ft | 194 kts | 223° |
| 2026-05-04 11:06 | 45.56158 | -73.63263 | 2147 ft | 193 kts | 225° |
| 2026-05-04 11:08 | 45.50086 | -73.71278 | 608 ft | 159 kts | 222° |
| 2026-05-04 11:10 | 45.46316 | -73.76232 | 111 ft | 0 kts | 222° |
| 2026-05-04 11:12 | 45.46073 | -73.76126 | 110 ft | 5 kts | 146° |
| 2026-05-04 11:12 | 45.46037 | -73.76081 | 111 ft | 9 kts | 136° |
| 2026-05-04 11:12 | 45.46011 | -73.76071 | 110 ft | 3 kts | 188° |
| 2026-05-04 11:12 | 45.45987 | -73.76109 | 111 ft | 7 kts | 237° |
| 2026-05-04 11:13 | 45.45961 | -73.76170 | 110 ft | 7 kts | 238° |
| 2026-05-04 11:13 | 45.45954 | -73.76188 | 108 ft | 2 kts | 239° |
| 2026-05-04 11:13 | 45.45950 | -73.76197 | 108 ft | 0 kts | 239° |